Time;durP1;ratioP1;P1;durP2;ratioP2;P2;SDS_P1;SDS_P2;PMS_P1;PMS_P2;Temp;Humidity;BMP_temperature;BMP_pressure;BME280_temperature;BME280_humidity;BME280_pressure;Samples;Min_cycle;Max_cycle;Signal;HPM_P1;HPM_P2
2023/07/25 00:01:03;;;;;;;5.23;1.83;;;18.80;96.00;;;;;;5036048;28;20470;-69
2023/07/25 00:03:30;;;;;;;5.40;2.03;;;18.80;96.00;;;;;;5036321;28;20831;-69
2023/07/25 00:05:57;;;;;;;7.00;2.23;;;18.80;96.00;;;;;;5036247;28;20455;-69
2023/07/25 00:08:25;;;;;;;12.17;2.93;;;18.80;96.00;;;;;;5035507;28;20971;-68
2023/07/25 00:10:52;;;;;;;4.13;2.30;;;18.80;96.00;;;;;;5035410;28;20999;-69
2023/07/25 00:13:19;;;;;;;4.23;2.10;;;18.80;96.00;;;;;;5035492;28;20459;-69
2023/07/25 00:15:46;;;;;;;8.30;2.50;;;18.80;96.00;;;;;;5017710;28;21006;-69
2023/07/25 00:18:13;;;;;;;7.13;2.10;;;18.70;96.00;;;;;;5035586;28;20451;-69
2023/07/25 00:20:39;;;;;;;7.00;2.00;;;18.80;96.10;;;;;;5035332;28;20477;-69
2023/07/25 00:23:06;;;;;;;6.50;2.80;;;18.70;96.00;;;;;;5035327;28;20492;-69
2023/07/25 00:25:34;;;;;;;8.13;2.17;;;18.70;96.10;;;;;;5035273;28;21002;-69
2023/07/25 00:28:01;;;;;;;5.23;2.17;;;18.70;96.10;;;;;;5035125;28;20473;-68
2023/07/25 00:30:28;;;;;;;5.93;2.47;;;18.70;96.00;;;;;;5034950;28;20995;-69
2023/07/25 00:32:55;;;;;;;3.43;2.23;;;18.70;96.10;;;;;;5035301;28;20526;-69
2023/07/25 00:35:22;;;;;;;6.00;2.23;;;18.70;96.50;;;;;;5034932;28;20466;-69
2023/07/25 00:37:48;;;;;;;6.50;2.20;;;18.70;96.00;;;;;;5033972;28;20451;-69
2023/07/25 00:40:15;;;;;;;10.17;2.77;;;18.70;96.00;;;;;;5033646;28;20489;-69
2023/07/25 00:42:43;;;;;;;6.70;2.73;;;18.60;96.10;;;;;;5034911;28;20443;-69
2023/07/25 00:45:10;;;;;;;6.70;2.10;;;18.60;96.10;;;;;;5033992;28;20842;-69
2023/07/25 00:47:37;;;;;;;6.80;2.50;;;18.60;96.10;;;;;;5034953;28;20523;-69
2023/07/25 00:50:04;;;;;;;5.47;2.50;;;18.60;96.00;;;;;;5034863;28;20471;-69
2023/07/25 00:52:31;;;;;;;5.20;2.30;;;18.60;96.10;;;;;;5035072;28;20439;-69
2023/07/25 00:54:58;;;;;;;5.97;2.60;;;18.60;96.20;;;;;;5034275;28;20978;-69
2023/07/25 00:57:25;;;;;;;4.63;2.20;;;18.60;96.40;;;;;;5034641;28;20458;-69
2023/07/25 00:59:53;;;;;;;6.40;2.97;;;18.60;96.50;;;;;;5034526;28;20473;-69
2023/07/25 01:02:20;;;;;;;11.80;2.87;;;18.60;96.50;;;;;;5034582;28;20455;-69
2023/07/25 01:04:47;;;;;;;8.10;2.93;;;18.70;96.40;;;;;;5034447;28;20548;-69
2023/07/25 01:07:14;;;;;;;3.90;2.10;;;18.60;96.40;;;;;;5034517;28;20796;-69
2023/07/25 01:09:43;;;;;;;8.80;3.10;;;18.70;96.50;;;;;;5034511;28;20442;-69
2023/07/25 01:12:11;;;;;;;6.20;2.97;;;18.70;96.50;;;;;;5034668;28;20443;-69
2023/07/25 01:14:38;;;;;;;3.20;2.53;;;18.60;96.30;;;;;;5034168;28;20508;-69
2023/07/25 01:17:10;;;;;;;5.37;2.57;;;18.60;96.20;;;;;;5033927;28;20450;-69
2023/07/25 01:19:39;;;;;;;8.37;2.80;;;18.60;96.10;;;;;;5034267;28;20973;-68
2023/07/25 01:22:07;;;;;;;9.53;3.57;;;18.60;96.00;;;;;;5035670;28;20451;-68
2023/07/25 01:24:36;;;;;;;9.07;2.63;;;18.60;96.10;;;;;;5035461;28;20589;-69
2023/07/25 01:27:03;;;;;;;5.93;2.90;;;18.60;95.90;;;;;;5034868;28;20453;-69
2023/07/25 01:29:30;;;;;;;7.90;3.00;;;18.60;95.90;;;;;;5033475;28;20450;-69
2023/07/25 01:31:57;;;;;;;11.40;4.33;;;18.60;95.80;;;;;;5034654;28;20446;-68
2023/07/25 01:34:24;;;;;;;7.23;3.10;;;18.60;95.70;;;;;;5036560;28;20451;-69
2023/07/25 01:36:50;;;;;;;7.50;3.23;;;18.60;95.70;;;;;;5042681;28;20438;-68
2023/07/25 01:39:17;;;;;;;6.07;2.87;;;18.60;95.70;;;;;;5039118;28;20952;-69
2023/07/25 01:41:45;;;;;;;5.63;2.37;;;18.60;95.60;;;;;;5037801;28;20470;-69
2023/07/25 01:44:12;;;;;;;3.20;2.30;;;18.50;95.60;;;;;;5036593;28;20478;-69
2023/07/25 01:46:40;;;;;;;6.30;2.70;;;18.60;95.60;;;;;;5036165;28;20493;-69
2023/07/25 01:49:07;;;;;;;8.50;2.80;;;18.50;95.90;;;;;;5035585;28;20940;-69
2023/07/25 01:51:33;;;;;;;10.27;3.47;;;18.50;95.60;;;;;;5038180;28;20466;-69
2023/07/25 01:54:00;;;;;;;12.90;3.17;;;18.50;95.60;;;;;;5036877;28;20960;-69
2023/07/25 01:56:27;;;;;;;7.47;2.60;;;18.50;95.70;;;;;;5035393;28;20446;-69
2023/07/25 01:58:55;;;;;;;9.00;2.63;;;18.50;95.60;;;;;;5035462;28;20451;-69
2023/07/25 02:01:22;;;;;;;6.37;2.50;;;18.50;95.70;;;;;;5035349;28;20466;-69
2023/07/25 02:03:49;;;;;;;12.70;2.70;;;18.50;95.70;;;;;;5035296;28;20865;-69
2023/07/25 02:06:15;;;;;;;13.27;3.70;;;18.50;95.50;;;;;;5035202;28;20545;-69
2023/07/25 02:08:43;;;;;;;8.13;2.97;;;18.50;95.50;;;;;;5034668;28;20447;-69
2023/07/25 02:11:10;;;;;;;7.43;2.73;;;18.50;95.40;;;;;;5034860;28;20477;-70
2023/07/25 02:13:37;;;;;;;12.33;3.50;;;18.40;95.40;;;;;;5035514;28;20836;-69
2023/07/25 02:16:07;;;;;;;6.60;3.30;;;18.40;95.40;;;;;;5034121;28;20969;-68
2023/07/25 02:18:34;;;;;;;6.10;3.20;;;18.40;95.50;;;;;;5033767;28;20504;-68
2023/07/25 02:21:01;;;;;;;7.93;2.93;;;18.40;95.50;;;;;;5034150;28;20473;-69
2023/07/25 02:23:27;;;;;;;10.43;2.80;;;18.40;95.40;;;;;;5034215;28;20541;-69
2023/07/25 02:25:54;;;;;;;5.73;3.30;;;18.40;95.50;;;;;;5033705;28;20582;-69
2023/07/25 02:28:21;;;;;;;7.47;2.70;;;18.30;95.50;;;;;;5033592;28;20449;-69
2023/07/25 02:30:48;;;;;;;11.13;3.20;;;18.30;95.50;;;;;;5033842;28;20466;-69
2023/07/25 02:33:16;;;;;;;7.17;3.33;;;18.30;95.40;;;;;;5033537;28;20446;-69
2023/07/25 02:35:43;;;;;;;11.13;3.13;;;18.30;95.30;;;;;;5033789;28;20450;-69
2023/07/25 02:38:10;;;;;;;8.33;3.80;;;18.30;95.20;;;;;;5033557;28;20461;-69
2023/07/25 02:40:37;;;;;;;10.00;3.20;;;18.20;95.10;;;;;;5034131;28;20474;-69
2023/07/25 02:43:04;;;;;;;5.67;3.00;;;18.20;95.10;;;;;;5033576;28;20451;-69
2023/07/25 02:45:31;;;;;;;8.13;2.87;;;18.20;95.10;;;;;;5033121;28;20482;-69
2023/07/25 02:47:57;;;;;;;7.63;2.93;;;18.10;95.00;;;;;;5033458;28;20478;-69
2023/07/25 02:50:25;;;;;;;7.97;3.80;;;18.10;95.00;;;;;;5033586;28;20466;-69
2023/07/25 02:52:52;;;;;;;10.87;2.87;;;18.10;95.00;;;;;;5033169;28;20944;-69
2023/07/25 02:55:19;;;;;;;6.33;3.50;;;18.00;94.90;;;;;;5034540;28;20806;-69
2023/07/25 02:57:46;;;;;;;6.63;3.40;;;18.00;94.90;;;;;;5033758;28;20451;-69
2023/07/25 03:00:14;;;;;;;6.67;3.80;;;18.00;94.90;;;;;;5033512;28;20470;-69
2023/07/25 03:02:40;;;;;;;5.40;3.03;;;17.90;94.80;;;;;;5032460;28;20449;-69
2023/07/25 03:05:08;;;;;;;4.10;3.57;;;17.90;94.80;;;;;;5033648;28;20482;-69
2023/07/25 03:07:38;;;;;;;16.13;4.63;;;17.90;94.80;;;;;;5033121;28;20449;-69
2023/07/25 03:10:06;;;;;;;5.43;3.00;;;17.80;94.80;;;;;;5036135;28;21065;-69
2023/07/25 03:12:33;;;;;;;9.97;3.20;;;17.80;94.80;;;;;;5036853;28;20443;-69
2023/07/25 03:14:59;;;;;;;8.13;3.40;;;17.80;94.90;;;;;;5036608;28;20454;-68
2023/07/25 03:17:26;;;;;;;12.20;3.80;;;17.80;95.00;;;;;;5036915;28;20451;-68
2023/07/25 03:19:53;;;;;;;8.43;3.10;;;17.80;95.10;;;;;;5036867;28;20466;-69
2023/07/25 03:22:20;;;;;;;8.33;4.20;;;17.70;95.00;;;;;;5036724;28;20461;-69
2023/07/25 03:24:49;;;;;;;11.43;3.17;;;17.70;95.00;;;;;;5036515;28;20501;-69
2023/07/25 03:27:16;;;;;;;9.40;3.33;;;17.70;95.00;;;;;;5036708;28;20442;-69
2023/07/25 03:29:43;;;;;;;9.43;3.83;;;17.70;95.00;;;;;;5036576;28;20454;-69
2023/07/25 03:32:10;;;;;;;6.50;3.43;;;17.70;95.10;;;;;;5036566;28;20488;-69
2023/07/25 03:34:37;;;;;;;10.23;3.40;;;17.70;95.10;;;;;;5036590;28;20446;-69
2023/07/25 03:37:04;;;;;;;7.80;3.73;;;17.60;95.20;;;;;;5036369;28;20822;-69
2023/07/25 03:39:31;;;;;;;4.43;3.30;;;17.70;95.40;;;;;;5036736;28;20470;-69
2023/07/25 03:41:59;;;;;;;8.37;3.80;;;17.60;95.30;;;;;;5036675;28;20446;-69
2023/07/25 03:44:26;;;;;;;7.10;3.93;;;17.60;95.40;;;;;;5036404;28;20473;-69
2023/07/25 03:46:54;;;;;;;10.17;3.87;;;17.60;95.40;;;;;;5036952;28;20446;-69
2023/07/25 03:49:21;;;;;;;4.53;3.60;;;17.60;95.40;;;;;;5047468;28;20442;-70
2023/07/25 03:51:47;;;;;;;6.30;3.60;;;17.60;95.40;;;;;;5047401;28;20459;-69
2023/07/25 03:54:14;;;;;;;6.13;3.50;;;17.60;95.40;;;;;;5041103;28;20454;-69
2023/07/25 03:56:41;;;;;;;6.50;3.83;;;17.60;95.40;;;;;;5038312;28;20455;-69
2023/07/25 03:59:09;;;;;;;8.33;3.73;;;17.60;95.40;;;;;;5037040;28;20509;-69
2023/07/25 04:01:36;;;;;;;9.47;4.33;;;17.60;95.30;;;;;;5037308;28;20477;-69
2023/07/25 04:04:03;;;;;;;11.67;3.93;;;17.60;95.30;;;;;;5036447;28;21021;-69
2023/07/25 04:06:30;;;;;;;7.47;4.00;;;17.60;95.20;;;;;;5035809;28;20486;-68
2023/07/25 04:08:57;;;;;;;6.80;4.20;;;17.60;95.10;;;;;;5035992;28;20842;-68
2023/07/25 04:11:23;;;;;;;6.63;3.70;;;17.60;95.00;;;;;;5035973;28;20466;-68
2023/07/25 04:13:50;;;;;;;8.37;3.80;;;17.60;94.90;;;;;;5035540;28;20458;-69
2023/07/25 04:16:18;;;;;;;8.80;3.47;;;17.50;94.60;;;;;;5035543;28;20496;-68
2023/07/25 04:18:45;;;;;;;11.00;4.00;;;17.50;94.60;;;;;;5035812;28;20450;-69
2023/07/25 04:21:12;;;;;;;8.23;3.60;;;17.50;94.60;;;;;;5035250;28;20542;-68
2023/07/25 04:23:40;;;;;;;8.80;3.60;;;17.50;94.50;;;;;;5035564;28;20481;-68
2023/07/25 04:26:07;;;;;;;11.10;4.13;;;17.50;94.60;;;;;;5035443;28;20474;-68
2023/07/25 04:28:34;;;;;;;5.90;3.93;;;17.50;94.60;;;;;;5036408;28;20443;-69
2023/07/25 04:31:01;;;;;;;12.97;4.20;;;17.50;94.50;;;;;;5035503;28;20471;-69
2023/07/25 04:33:31;;;;;;;7.77;4.50;;;17.50;94.60;;;;;;5035269;28;20500;-68
2023/07/25 04:35:58;;;;;;;10.03;5.13;;;17.50;94.60;;;;;;5035695;28;20462;-69
2023/07/25 04:38:25;;;;;;;10.47;4.53;;;17.50;94.70;;;;;;5035692;28;20450;-68
2023/07/25 04:40:51;;;;;;;8.30;3.70;;;17.50;94.70;;;;;;5035713;28;20478;-69
2023/07/25 04:43:20;;;;;;;6.23;4.40;;;17.50;94.70;;;;;;5035225;28;20517;-69
2023/07/25 04:45:46;;;;;;;14.60;4.23;;;17.50;94.70;;;;;;5035007;28;20482;-69
2023/07/25 04:48:13;;;;;;;6.00;4.33;;;17.50;94.70;;;;;;5034824;28;20457;-69
2023/07/25 04:50:41;;;;;;;8.77;4.30;;;17.50;94.70;;;;;;5033845;28;20466;-69
2023/07/25 04:53:09;;;;;;;10.50;4.53;;;17.60;94.70;;;;;;5034865;28;20448;-69
2023/07/25 04:55:36;;;;;;;7.63;4.30;;;17.60;94.80;;;;;;5034923;28;20446;-69
2023/07/25 04:58:04;;;;;;;8.17;4.70;;;17.60;94.80;;;;;;5034712;28;20451;-69
2023/07/25 05:00:31;;;;;;;7.40;4.00;;;17.70;94.90;;;;;;5034438;28;20477;-69
2023/07/25 05:02:58;;;;;;;7.90;4.37;;;17.80;94.90;;;;;;5033253;28;20530;-69
2023/07/25 05:05:25;;;;;;;7.70;4.33;;;17.80;94.70;;;;;;5034595;28;20490;-69
2023/07/25 05:07:54;;;;;;;7.87;3.97;;;17.80;94.80;;;;;;5034661;28;20454;-69
2023/07/25 05:10:21;;;;;;;7.57;4.63;;;17.90;94.80;;;;;;5034529;28;20470;-69
2023/07/25 05:12:47;;;;;;;7.30;4.50;;;18.00;94.80;;;;;;5034057;28;20455;-69
2023/07/25 05:15:14;;;;;;;9.50;5.13;;;18.00;94.80;;;;;;5034002;28;20458;-69
2023/07/25 05:17:41;;;;;;;6.83;4.33;;;18.10;94.80;;;;;;5034462;28;20453;-68
2023/07/25 05:20:09;;;;;;;7.50;4.70;;;18.10;94.70;;;;;;5033990;28;21002;-69
2023/07/25 05:22:35;;;;;;;7.67;5.33;;;18.20;94.70;;;;;;5034289;28;20496;-69
2023/07/25 05:25:05;;;;;;;4.97;4.20;;;18.30;94.60;;;;;;5032604;28;20447;-69
2023/07/25 05:27:31;;;;;;;6.70;4.20;;;18.30;94.50;;;;;;5034253;28;20451;-69
2023/07/25 05:29:58;;;;;;;5.80;4.23;;;18.40;94.50;;;;;;5034144;28;20469;-69
2023/07/25 05:32:25;;;;;;;7.40;4.03;;;18.40;94.40;;;;;;5032377;28;20458;-69
2023/07/25 05:34:51;;;;;;;6.50;3.40;;;18.40;94.10;;;;;;5033922;28;20446;-69
2023/07/25 05:37:19;;;;;;;7.73;2.70;;;18.50;93.90;;;;;;5032736;28;20451;-68
2023/07/25 05:39:46;;;;;;;9.40;3.63;;;18.50;93.50;;;;;;5033482;28;20464;-69
2023/07/25 05:42:14;;;;;;;3.27;2.80;;;18.50;93.10;;;;;;5032540;28;20454;-69
2023/07/25 05:44:41;;;;;;;7.43;3.23;;;18.50;93.00;;;;;;5033879;28;20457;-68
2023/07/25 05:47:07;;;;;;;9.50;3.60;;;18.50;92.90;;;;;;5034255;28;20489;-69
2023/07/25 05:49:34;;;;;;;6.30;3.60;;;18.50;92.80;;;;;;5033692;28;20869;-69
2023/07/25 05:52:01;;;;;;;5.73;3.27;;;18.50;92.80;;;;;;5033777;28;20446;-69
2023/07/25 05:54:29;;;;;;;6.67;3.23;;;18.50;92.70;;;;;;5033366;28;20962;-69
2023/07/25 05:56:56;;;;;;;5.40;3.13;;;18.60;92.80;;;;;;5039802;28;20513;-67
2023/07/25 05:59:24;;;;;;;4.60;3.20;;;18.60;93.10;;;;;;5040767;28;20453;-67
2023/07/25 06:01:51;;;;;;;7.13;3.07;;;18.60;92.60;;;;;;5040212;28;20470;-68
2023/07/25 06:04:19;;;;;;;5.53;2.90;;;18.60;92.50;;;;;;5039918;28;20467;-67
2023/07/25 06:06:45;;;;;;;4.80;2.80;;;18.70;92.50;;;;;;5038687;28;20521;-68
2023/07/25 06:09:12;;;;;;;6.87;3.60;;;18.80;92.50;;;;;;5043793;28;20504;-68
2023/07/25 06:11:39;;;;;;;5.60;2.80;;;18.80;92.20;;;;;;5043556;28;20498;-68
2023/07/25 06:14:06;;;;;;;9.03;3.33;;;18.80;92.20;;;;;;5040925;28;20455;-68
2023/07/25 06:16:34;;;;;;;6.63;3.20;;;18.90;92.10;;;;;;5040544;28;20446;-68
2023/07/25 06:19:02;;;;;;;7.30;2.77;;;18.90;92.00;;;;;;5040300;28;20458;-68
2023/07/25 06:21:29;;;;;;;5.00;2.57;;;18.90;91.30;;;;;;5038474;28;20505;-67
2023/07/25 06:23:55;;;;;;;6.33;2.67;;;19.00;91.20;;;;;;5037780;28;20458;-68
2023/07/25 06:26:22;;;;;;;6.10;3.13;;;19.10;91.30;;;;;;5037714;28;20478;-69
2023/07/25 06:28:51;;;;;;;6.80;3.23;;;19.10;91.20;;;;;;5037260;28;20453;-68
2023/07/25 06:31:17;;;;;;;5.77;2.80;;;19.20;91.10;;;;;;5037562;28;20517;-67
2023/07/25 06:33:46;;;;;;;4.90;2.97;;;19.30;91.30;;;;;;5036745;28;20461;-67
2023/07/25 06:36:12;;;;;;;5.60;2.00;;;19.30;90.70;;;;;;5037008;28;20454;-68
2023/07/25 06:38:39;;;;;;;4.17;2.40;;;19.40;90.50;;;;;;5036145;28;20446;-69
2023/07/25 06:41:06;;;;;;;4.17;2.50;;;19.50;90.50;;;;;;5037783;28;20474;-67
2023/07/25 06:43:33;;;;;;;5.40;2.40;;;19.60;90.30;;;;;;5038351;28;20458;-67
2023/07/25 06:46:00;;;;;;;8.43;2.73;;;19.70;88.70;;;;;;5042600;28;20481;-67
2023/07/25 06:48:28;;;;;;;5.00;2.10;;;19.80;88.30;;;;;;5045144;28;20454;-68
2023/07/25 06:50:56;;;;;;;6.07;2.77;;;19.90;87.50;;;;;;5043782;28;20471;-68
2023/07/25 06:53:23;;;;;;;10.27;2.60;;;20.10;86.90;;;;;;5043405;28;20442;-68
2023/07/25 06:55:50;;;;;;;4.40;2.40;;;20.30;87.30;;;;;;5041956;28;20442;-69
2023/07/25 06:58:18;;;;;;;8.37;2.40;;;20.40;86.00;;;;;;5041592;28;20450;-68
2023/07/25 07:00:46;;;;;;;6.47;2.20;;;20.60;85.30;;;;;;5040965;28;20474;-69
2023/07/25 07:03:17;;;;;;;4.07;1.93;;;20.80;83.90;;;;;;5040790;28;20870;-67
2023/07/25 07:05:55;;;;;;;8.63;2.47;;;21.10;83.80;;;;;;5041157;28;20524;-68
2023/07/25 07:08:24;;;;;;;5.80;2.00;;;21.50;82.60;;;;;;5042490;28;20431;-68
2023/07/25 07:10:54;;;;;;;5.33;1.87;;;21.70;80.80;;;;;;5042477;28;20995;-68
2023/07/25 07:13:21;;;;;;;5.60;2.03;;;22.00;79.70;;;;;;5042358;28;20478;-69
2023/07/25 07:15:49;;;;;;;3.63;1.80;;;22.20;78.60;;;;;;5041783;28;20472;-68
2023/07/25 07:18:16;;;;;;;3.73;2.33;;;22.40;76.80;;;;;;5041304;28;20458;-67
2023/07/25 07:20:49;;;;;;;4.97;1.80;;;22.50;75.80;;;;;;5041897;28;20466;-67
2023/07/25 07:23:16;;;;;;;6.83;2.37;;;22.60;75.00;;;;;;5040942;28;20424;-69
2023/07/25 07:25:45;;;;;;;5.80;2.80;;;22.70;73.60;;;;;;5039466;28;20469;-69
2023/07/25 07:28:12;;;;;;;3.80;1.83;;;22.80;72.90;;;;;;5039217;28;20453;-68
2023/07/25 07:30:39;;;;;;;5.07;2.07;;;22.80;72.70;;;;;;5039162;28;20470;-68
2023/07/25 07:33:06;;;;;;;3.40;1.70;;;22.80;73.10;;;;;;5038769;28;20827;-67
2023/07/25 07:35:33;;;;;;;5.80;2.13;;;22.80;73.30;;;;;;5039294;28;20450;-69
2023/07/25 07:38:00;;;;;;;5.80;2.33;;;22.80;70.80;;;;;;5039067;28;20534;-69
2023/07/25 07:40:28;;;;;;;4.77;2.03;;;22.80;70.90;;;;;;5038750;28;20471;-68
2023/07/25 07:42:56;;;;;;;7.33;1.50;;;22.80;71.40;;;;;;5038468;28;20512;-68
2023/07/25 07:45:23;;;;;;;3.50;1.60;;;22.80;71.30;;;;;;5038429;28;20960;-69
2023/07/25 07:47:51;;;;;;;3.50;1.37;;;22.70;70.90;;;;;;5038814;28;20488;-69
2023/07/25 07:50:19;;;;;;;6.40;1.80;;;22.70;70.10;;;;;;5038119;28;20522;-68
2023/07/25 07:52:46;;;;;;;3.43;2.00;;;22.60;69.80;;;;;;5038347;28;20454;-68
2023/07/25 07:55:13;;;;;;;2.80;1.70;;;22.60;70.40;;;;;;5037630;28;20462;-69
2023/07/25 07:57:42;;;;;;;4.60;1.87;;;22.50;71.00;;;;;;5038210;28;20541;-69
2023/07/25 08:00:11;;;;;;;5.63;2.10;;;22.50;71.50;;;;;;5038153;28;20489;-68
2023/07/25 08:02:39;;;;;;;5.23;2.00;;;22.40;70.60;;;;;;5038234;28;20827;-68
2023/07/25 08:05:06;;;;;;;4.17;1.73;;;22.30;70.00;;;;;;5037289;28;20851;-68
2023/07/25 08:07:35;;;;;;;9.73;1.70;;;22.30;70.40;;;;;;5038582;28;20478;-69
2023/07/25 08:10:02;;;;;;;7.23;1.90;;;22.20;70.10;;;;;;5038474;28;20886;-68
2023/07/25 08:12:29;;;;;;;3.93;2.20;;;22.20;69.60;;;;;;5038893;28;20454;-69
2023/07/25 08:14:55;;;;;;;6.83;1.97;;;22.20;69.80;;;;;;5036656;28;20458;-68
2023/07/25 08:17:24;;;;;;;3.17;2.10;;;22.20;70.10;;;;;;5038456;28;20450;-69
2023/07/25 08:19:51;;;;;;;4.63;1.53;;;22.20;70.20;;;;;;5038291;28;20474;-68
2023/07/25 08:22:18;;;;;;;7.97;1.83;;;22.20;69.90;;;;;;5038204;28;20478;-68
2023/07/25 08:24:45;;;;;;;4.10;1.57;;;22.20;69.30;;;;;;5038288;28;20454;-69
2023/07/25 08:27:12;;;;;;;3.90;1.83;;;22.20;68.50;;;;;;5038463;28;20526;-69
2023/07/25 08:29:40;;;;;;;5.80;1.50;;;22.30;68.90;;;;;;5045028;28;20449;-68
2023/07/25 08:32:09;;;;;;;4.10;1.80;;;22.40;68.90;;;;;;5051841;28;20817;-68
2023/07/25 08:34:39;;;;;;;6.23;1.77;;;22.50;68.50;;;;;;5045736;28;20454;-68
2023/07/25 08:37:07;;;;;;;4.57;1.97;;;22.60;68.10;;;;;;5042980;28;20816;-68
2023/07/25 08:39:34;;;;;;;3.90;1.57;;;22.70;67.40;;;;;;5040301;28;20450;-67
2023/07/25 08:42:04;;;;;;;2.37;1.40;;;22.90;66.70;;;;;;5041167;28;20474;-69
2023/07/25 08:44:34;;;;;;;2.50;1.47;;;23.10;66.40;;;;;;5039681;28;20431;-68
2023/07/25 08:47:06;;;;;;;2.87;1.40;;;23.30;64.70;;;;;;5038971;28;20873;-69
2023/07/25 08:49:36;;;;;;;2.20;1.53;;;23.50;63.30;;;;;;5038496;28;20461;-68
2023/07/25 08:52:06;;;;;;;5.20;1.50;;;23.60;62.20;;;;;;5037962;28;20434;-68
2023/07/25 08:54:35;;;;;;;4.43;2.23;;;23.80;61.20;;;;;;5036981;28;20504;-68
2023/07/25 08:57:02;;;;;;;3.67;1.40;;;23.90;59.80;;;;;;5037641;28;20476;-69
2023/07/25 08:59:30;;;;;;;2.90;1.10;;;23.90;58.00;;;;;;5037171;28;20892;-68
2023/07/25 09:01:56;;;;;;;2.90;1.73;;;23.90;58.50;;;;;;5037327;28;20447;-69
2023/07/25 09:04:25;;;;;;;5.83;1.60;;;24.00;58.60;;;;;;5036983;28;20481;-68
2023/07/25 09:06:52;;;;;;;3.57;1.27;;;24.10;58.20;;;;;;5036526;28;20482;-68
2023/07/25 09:09:21;;;;;;;1.67;1.20;;;24.10;57.40;;;;;;5041500;28;20450;-69
2023/07/25 09:11:48;;;;;;;4.80;1.90;;;24.20;56.90;;;;;;5041853;28;20564;-68
2023/07/25 09:14:15;;;;;;;4.27;1.80;;;24.30;56.50;;;;;;5039788;28;20455;-69
2023/07/25 09:16:42;;;;;;;4.00;1.50;;;24.40;56.00;;;;;;5039165;28;20450;-68
2023/07/25 09:19:08;;;;;;;3.13;1.30;;;24.40;56.00;;;;;;5038299;28;20964;-68
2023/07/25 09:21:47;;;;;;;5.80;1.67;;;24.60;56.80;;;;;;5037646;28;20475;-68
2023/07/25 09:24:14;;;;;;;6.10;1.70;;;24.80;57.10;;;;;;5037027;28;20462;-69
2023/07/25 09:26:48;;;;;;;3.90;1.47;;;25.00;57.00;;;;;;5036358;28;20509;-68
2023/07/25 09:29:16;;;;;;;2.63;0.97;;;25.20;55.50;;;;;;5037103;28;20438;-69
2023/07/25 09:31:44;;;;;;;3.53;1.40;;;25.40;54.50;;;;;;5036543;28;20546;-68
2023/07/25 09:34:16;;;;;;;5.10;1.40;;;25.60;52.90;;;;;;5036781;28;20458;-68
2023/07/25 09:36:47;;;;;;;2.67;1.17;;;25.70;51.50;;;;;;5036252;28;20971;-69
2023/07/25 09:39:13;;;;;;;3.03;1.20;;;25.70;50.60;;;;;;5036947;28;20537;-69
2023/07/25 09:41:42;;;;;;;2.50;1.30;;;25.70;50.50;;;;;;5036378;28;20871;-68
2023/07/25 09:44:09;;;;;;;6.17;1.60;;;25.70;50.90;;;;;;5036447;28;20482;-68
2023/07/25 09:46:37;;;;;;;7.50;1.80;;;25.70;50.50;;;;;;5040270;28;20517;-69
2023/07/25 09:49:04;;;;;;;4.43;1.27;;;25.70;50.80;;;;;;5043086;28;20455;-69
2023/07/25 09:51:31;;;;;;;3.70;1.50;;;25.70;50.50;;;;;;5041392;28;20473;-68
2023/07/25 09:53:58;;;;;;;2.77;1.20;;;25.80;49.60;;;;;;5042038;28;20522;-69
2023/07/25 09:56:27;;;;;;;4.07;1.40;;;25.80;49.40;;;;;;5045290;28;20459;-69
2023/07/25 09:58:55;;;;;;;3.40;1.50;;;25.90;50.30;;;;;;5042885;28;20450;-68
2023/07/25 10:01:22;;;;;;;3.87;1.40;;;26.10;49.10;;;;;;5040286;28;20474;-68
2023/07/25 10:03:50;;;;;;;4.07;1.57;;;26.20;48.90;;;;;;5046081;28;20537;-68
2023/07/25 10:06:18;;;;;;;4.37;1.57;;;26.20;48.70;;;;;;5043774;28;20477;-68
2023/07/25 10:08:45;;;;;;;3.03;1.60;;;26.10;48.00;;;;;;5043910;28;20443;-69
2023/07/25 10:11:13;;;;;;;3.17;1.47;;;26.20;48.60;;;;;;5042926;28;20466;-68
2023/07/25 10:13:41;;;;;;;3.60;1.53;;;26.30;47.90;;;;;;5040492;28;20467;-69
2023/07/25 10:16:14;;;;;;;2.23;1.00;;;26.40;47.90;;;;;;5039703;28;20453;-68
2023/07/25 10:18:41;;;;;;;4.40;1.00;;;26.60;48.10;;;;;;5039183;28;20427;-68
2023/07/25 10:21:09;;;;;;;3.20;1.30;;;26.90;48.60;;;;;;5037708;28;20470;-68
2023/07/25 10:23:36;;;;;;;3.50;1.43;;;27.10;47.10;;;;;;5037320;28;20453;-69
2023/07/25 10:26:13;;;;;;;2.00;1.37;;;27.50;45.70;;;;;;5037369;28;20545;-68
2023/07/25 10:28:40;;;;;;;2.87;1.13;;;28.10;45.00;;;;;;5037189;28;20489;-69
2023/07/25 10:31:09;;;;;;;4.70;1.53;;;28.30;42.90;;;;;;5037675;28;20532;-68
2023/07/25 10:33:41;;;;;;;2.20;1.10;;;28.50;43.80;;;;;;5036937;28;20446;-69
2023/07/25 10:36:23;;;;;;;2.93;1.43;;;28.50;41.00;;;;;;5037311;28;20504;-69
2023/07/25 10:38:49;;;;;;;2.30;1.27;;;28.60;41.10;;;;;;5036260;28;20447;-69
2023/07/25 10:41:16;;;;;;;1.57;1.27;;;28.80;41.50;;;;;;5036371;28;20478;-68
2023/07/25 10:44:00;;;;;;;1.90;1.07;;;29.10;41.20;;;;;;5035821;28;20481;-68
2023/07/25 10:46:29;;;;;;;3.00;1.33;;;29.40;41.80;;;;;;5035030;28;20441;-68
2023/07/25 10:48:58;;;;;;;1.50;1.40;;;29.70;41.00;;;;;;5035581;28;20812;-68
2023/07/25 10:52:00;;;;;;;3.53;1.40;;;29.80;37.30;;;;;;5042078;28;20836;-67
2023/07/25 10:54:28;;;;;;;6.10;1.33;;;29.80;36.50;;;;;;5047772;28;20505;-67
2023/07/25 10:57:17;;;;;;;2.23;1.07;;;29.60;37.80;;;;;;5040871;28;20974;-68
2023/07/25 11:00:00;;;;;;;4.73;1.03;;;29.40;38.10;;;;;;5039160;28;20494;-68
2023/07/25 11:02:33;;;;;;;3.13;1.17;;;29.20;40.10;;;;;;5037393;28;20443;-67
2023/07/25 11:05:22;;;;;;;4.00;1.20;;;28.90;40.60;;;;;;5036101;28;20450;-67
2023/07/25 11:07:51;;;;;;;2.10;0.93;;;28.50;39.40;;;;;;5037540;28;20478;-67
2023/07/25 11:10:22;;;;;;;1.80;0.93;;;27.90;39.40;;;;;;5037388;28;20469;-67
2023/07/25 11:12:53;;;;;;;1.73;1.00;;;27.40;41.70;;;;;;5036806;28;20458;-68
2023/07/25 11:15:20;;;;;;;3.00;1.13;;;27.00;41.80;;;;;;5036330;28;20466;-68
2023/07/25 11:17:50;;;;;;;3.80;1.47;;;26.90;43.30;;;;;;5035337;28;20450;-67
2023/07/25 11:20:18;;;;;;;3.90;1.30;;;26.90;44.00;;;;;;5035702;28;20986;-67
2023/07/25 11:22:48;;;;;;;3.97;1.60;;;27.00;43.40;;;;;;5036071;28;20453;-69
2023/07/25 11:25:14;;;;;;;4.30;1.67;;;27.40;44.00;;;;;;5035418;28;20450;-67
2023/07/25 11:27:42;;;;;;;4.30;1.27;;;27.50;42.10;;;;;;5035426;28;20485;-68
2023/07/25 11:30:13;;;;;;;4.03;1.27;;;27.50;43.60;;;;;;5039884;28;20474;-68
2023/07/25 11:32:45;;;;;;;2.00;1.33;;;27.30;43.80;;;;;;5045544;28;20439;-67
2023/07/25 11:35:14;;;;;;;1.87;1.30;;;27.00;44.30;;;;;;5040862;28;20443;-68
2023/07/25 11:37:41;;;;;;;4.17;1.30;;;26.80;44.40;;;;;;5041443;28;20482;-69
2023/07/25 11:40:13;;;;;;;2.50;1.30;;;26.60;45.60;;;;;;5039165;28;20987;-67
2023/07/25 11:42:42;;;;;;;4.30;1.27;;;26.50;46.00;;;;;;5039581;28;20457;-68
2023/07/25 11:45:11;;;;;;;4.73;1.80;;;26.10;47.00;;;;;;5038494;28;20477;-68
2023/07/25 11:47:39;;;;;;;3.70;1.80;;;25.80;47.30;;;;;;5037351;28;21011;-69
2023/07/25 11:50:09;;;;;;;4.50;1.70;;;25.30;47.40;;;;;;5039046;28;20467;-68
2023/07/25 11:52:40;;;;;;;3.20;1.30;;;25.00;48.70;;;;;;5038180;28;20513;-68
2023/07/25 11:55:11;;;;;;;4.47;1.93;;;24.60;49.90;;;;;;5039357;28;20431;-68
2023/07/25 11:57:40;;;;;;;4.70;1.80;;;24.20;50.60;;;;;;5036404;28;20470;-68
2023/07/25 12:00:11;;;;;;;4.77;1.43;;;23.90;50.90;;;;;;5036587;28;20470;-68
2023/07/25 12:02:38;;;;;;;3.90;1.40;;;23.60;51.90;;;;;;5036141;28;20485;-68
2023/07/25 12:05:06;;;;;;;2.70;1.43;;;23.40;52.40;;;;;;5035928;28;20455;-69
2023/07/25 12:07:53;;;;;;;9.50;1.60;;;23.20;53.30;;;;;;5036167;28;20470;-68
2023/07/25 12:10:27;;;;;;;5.13;1.63;;;23.00;54.20;;;;;;5035999;28;20466;-69
2023/07/25 12:12:55;;;;;;;4.90;2.00;;;22.80;54.90;;;;;;5035810;28;20477;-69
2023/07/25 12:15:24;;;;;;;2.63;1.17;;;22.70;55.60;;;;;;5035362;28;20442;-69
2023/07/25 12:17:52;;;;;;;5.33;1.90;;;22.60;55.60;;;;;;5035758;28;20438;-68
2023/07/25 12:20:20;;;;;;;1.80;1.00;;;22.50;55.60;;;;;;5034490;28;20980;-69
2023/07/25 12:22:48;;;;;;;4.17;1.50;;;22.50;55.80;;;;;;5035288;28;21009;-68
2023/07/25 12:25:20;;;;;;;8.13;1.53;;;22.50;55.60;;;;;;5035550;28;20450;-69
2023/07/25 12:27:48;;;;;;;3.33;1.40;;;22.60;55.30;;;;;;5035115;28;21026;-69
2023/07/25 12:30:15;;;;;;;3.97;1.30;;;22.70;55.50;;;;;;5035463;28;20466;-68
2023/07/25 12:32:42;;;;;;;2.77;1.00;;;22.80;55.60;;;;;;5035316;28;20449;-69
2023/07/25 12:35:11;;;;;;;3.00;1.90;;;23.00;55.60;;;;;;5035185;28;20454;-69
2023/07/25 12:37:38;;;;;;;2.73;1.30;;;23.20;54.50;;;;;;5033906;28;20442;-69
2023/07/25 12:40:06;;;;;;;3.33;1.47;;;23.30;54.20;;;;;;5035152;28;20474;-68
2023/07/25 12:42:34;;;;;;;2.13;0.93;;;23.50;54.10;;;;;;5035045;28;20454;-69
2023/07/25 12:45:05;;;;;;;2.70;1.40;;;23.50;51.80;;;;;;5037755;28;20492;-68
2023/07/25 12:47:33;;;;;;;4.77;1.00;;;23.70;50.70;;;;;;5037253;28;20830;-68
2023/07/25 12:50:00;;;;;;;3.07;1.30;;;23.90;51.00;;;;;;5038143;28;20470;-68